createdAt,value
2018-07-13T00:01:33.239Z,97957.45
2018-07-13T00:04:00.809Z,97960.89
2018-07-13T00:06:28.379Z,97955.05
2018-07-13T00:08:55.981Z,97959.61
2018-07-13T00:11:23.508Z,97959.88
2018-07-13T00:14:21.405Z,97954.14
2018-07-13T00:16:50.018Z,97959.48
2018-07-13T00:19:18.259Z,97961.75
2018-07-13T00:21:45.902Z,97967.61
2018-07-13T00:24:13.471Z,97961.76
2018-07-13T00:26:41.086Z,97958.33
2018-07-13T00:29:09.075Z,97960.14
2018-07-13T00:31:37.561Z,97964.09
2018-07-13T00:34:05.430Z,97960.52
2018-07-13T00:36:32.997Z,97968.00
2018-07-13T00:39:00.570Z,97962.41
2018-07-13T00:41:28.287Z,97963.05
2018-07-13T00:43:55.875Z,97965.21
2018-07-13T00:46:23.605Z,97970.04
2018-07-13T00:48:51.166Z,97964.45
2018-07-13T00:51:18.831Z,97969.41
2018-07-13T00:53:46.722Z,97967.52
2018-07-13T00:56:14.330Z,97976.67
2018-07-13T00:58:41.990Z,97976.14
2018-07-13T01:01:09.554Z,97973.73
2018-07-13T01:03:37.125Z,97976.80
2018-07-13T01:06:04.767Z,97968.14
2018-07-13T01:08:32.371Z,97977.91
2018-07-13T01:10:59.949Z,97975.33
2018-07-13T01:13:27.494Z,97975.53
2018-07-13T01:15:55.263Z,97970.95
2018-07-13T01:18:22.802Z,97973.75
2018-07-13T01:20:50.417Z,97975.28
2018-07-13T01:23:18.039Z,97970.31
2018-07-13T01:25:45.594Z,97975.59
2018-07-13T01:28:13.201Z,97980.05
2018-07-13T01:30:40.811Z,97977.40
2018-07-13T01:33:08.375Z,97979.78
2018-07-13T01:35:35.898Z,97979.77
2018-07-13T01:38:03.537Z,97982.69
2018-07-13T01:40:31.077Z,97980.38
2018-07-13T01:43:00.665Z,97971.22
2018-07-13T01:45:28.222Z,97977.20
2018-07-13T01:47:55.741Z,97974.89
2018-07-13T01:50:23.311Z,97969.59
2018-07-13T01:52:51.229Z,97969.21
2018-07-13T01:55:18.758Z,97973.00
2018-07-13T01:57:46.290Z,97966.31
2018-07-13T02:00:13.873Z,97975.34
2018-07-13T02:02:41.431Z,97973.15
2018-07-13T02:05:08.978Z,97974.59
2018-07-13T02:07:36.622Z,97974.57
2018-07-13T02:10:04.231Z,97981.55
2018-07-13T02:12:31.762Z,97982.47
2018-07-13T02:14:59.330Z,97984.39
2018-07-13T02:17:26.870Z,97991.28
2018-07-13T02:19:54.387Z,97993.80
2018-07-13T02:22:21.998Z,97988.84
2018-07-13T02:24:49.558Z,97990.38
2018-07-13T02:27:17.272Z,97997.60
2018-07-13T02:29:44.868Z,97998.64
2018-07-13T02:32:12.418Z,97998.01
2018-07-13T02:34:39.967Z,98001.27
2018-07-13T02:37:07.725Z,97999.13
2018-07-13T02:39:35.395Z,98000.91
2018-07-13T02:42:03.102Z,98004.83
2018-07-13T02:44:30.991Z,98009.42
2018-07-13T02:46:58.555Z,98014.13
2018-07-13T02:49:26.099Z,98010.55
2018-07-13T02:51:53.695Z,98014.30
2018-07-13T02:54:21.213Z,98017.97
2018-07-13T02:56:48.795Z,98015.14
2018-07-13T02:59:16.374Z,98016.41
2018-07-13T03:01:43.930Z,98019.20
2018-07-13T03:04:11.438Z,98020.59
2018-07-13T03:06:39.034Z,98022.40
2018-07-13T03:09:08.402Z,98025.44
2018-07-13T03:11:36.030Z,98029.13
2018-07-13T03:14:03.882Z,98037.95
2018-07-13T03:16:31.401Z,98033.02
2018-07-13T03:18:58.922Z,98035.70
2018-07-13T03:21:26.526Z,98037.25
2018-07-13T03:23:54.072Z,98039.77
2018-07-13T03:26:21.606Z,98035.89
2018-07-13T03:28:49.349Z,98036.00
2018-07-13T03:31:16.897Z,98041.21
2018-07-13T03:33:44.591Z,98041.52
2018-07-13T03:36:12.158Z,98044.14
2018-07-13T03:38:39.670Z,98052.22
2018-07-13T03:41:07.207Z,98054.25
2018-07-13T03:43:34.766Z,98054.28
2018-07-13T03:46:02.278Z,98059.75
2018-07-13T03:48:29.912Z,98062.19
2018-07-13T03:50:57.448Z,98063.34
2018-07-13T03:53:25.104Z,98069.09
2018-07-13T03:55:52.635Z,98070.75
2018-07-13T03:58:20.229Z,98069.49
2018-07-13T04:00:47.767Z,98080.20
2018-07-13T04:03:15.374Z,98077.69
2018-07-13T04:05:43.030Z,98078.66
2018-07-13T04:08:10.664Z,98086.13
2018-07-13T04:10:38.213Z,98084.91
2018-07-13T04:13:05.867Z,98083.78
2018-07-13T04:15:33.427Z,98087.98
2018-07-13T04:18:01.001Z,98094.25
2018-07-13T04:20:28.673Z,98090.99
2018-07-13T04:22:56.333Z,98086.58
2018-07-13T04:25:23.949Z,98088.30
2018-07-13T04:27:51.653Z,98085.55
2018-07-13T04:30:19.321Z,98089.00
2018-07-13T04:32:46.837Z,98086.34
2018-07-13T04:35:14.456Z,98084.47
2018-07-13T04:37:41.982Z,98086.64
2018-07-13T04:40:09.534Z,98081.70
2018-07-13T04:42:37.137Z,98089.59
2018-07-13T04:45:04.809Z,98093.16
2018-07-13T04:47:32.498Z,98090.50
2018-07-13T04:50:00.229Z,98087.84
2018-07-13T04:52:27.913Z,98085.44
2018-07-13T04:54:55.556Z,98083.67
2018-07-13T04:57:23.274Z,98086.72
2018-07-13T04:59:50.947Z,98086.09
2018-07-13T05:02:18.693Z,98085.86
2018-07-13T05:04:46.344Z,98089.15
2018-07-13T05:07:14.085Z,98094.75
2018-07-13T05:09:41.721Z,98092.84
2018-07-13T05:12:09.294Z,98093.72
2018-07-13T05:14:36.865Z,98097.95
2018-07-13T05:17:04.582Z,98101.89
2018-07-13T05:19:32.145Z,98107.53
2018-07-13T05:21:59.813Z,98105.26
2018-07-13T05:24:27.468Z,98112.25
2018-07-13T05:26:55.229Z,98111.33
2018-07-13T05:29:22.829Z,98105.98
2018-07-13T05:31:50.505Z,98114.73
2018-07-13T05:34:18.180Z,98114.37
2018-07-13T05:36:45.874Z,98107.49
2018-07-13T05:39:13.517Z,98106.83
2018-07-13T05:41:41.608Z,98107.06
2018-07-13T05:44:09.249Z,98109.62
2018-07-13T05:46:36.903Z,98115.46
2018-07-13T05:49:04.794Z,98114.44
2018-07-13T05:51:32.461Z,98118.53
2018-07-13T05:54:00.117Z,98127.30
2018-07-13T05:56:27.842Z,98125.27
2018-07-13T05:58:55.493Z,98126.00
2018-07-13T06:01:23.134Z,98130.12
2018-07-13T06:03:50.822Z,98123.72
2018-07-13T06:06:18.542Z,98126.54
2018-07-13T06:08:46.191Z,98135.94
2018-07-13T06:11:15.058Z,98130.72
2018-07-13T06:13:42.603Z,98129.55
2018-07-13T06:16:10.138Z,98127.50
2018-07-13T06:18:37.704Z,98131.63
2018-07-13T06:21:05.282Z,98137.56
2018-07-13T06:23:32.825Z,98141.55
2018-07-13T06:26:00.446Z,98139.31
2018-07-13T06:28:28.061Z,98136.30
2018-07-13T06:30:55.686Z,98139.53
2018-07-13T06:33:23.315Z,98138.73
2018-07-13T06:35:50.831Z,98144.25
2018-07-13T06:38:18.463Z,98142.07
2018-07-13T06:40:47.059Z,98141.92
2018-07-13T06:43:14.743Z,98142.85
2018-07-13T06:45:42.415Z,98146.53
2018-07-13T06:48:10.365Z,98146.92
2018-07-13T06:50:38.165Z,98143.56
2018-07-13T06:53:05.954Z,98142.59
2018-07-13T06:55:33.583Z,98138.78
2018-07-13T06:58:12.350Z,98141.23
2018-07-13T07:00:56.834Z,98144.41
2018-07-13T07:03:25.303Z,98136.92
2018-07-13T07:06:10.998Z,98137.02
2018-07-13T07:08:40.769Z,98146.48
2018-07-13T07:11:08.455Z,98146.41
2018-07-13T07:13:37.995Z,98148.78
2018-07-13T07:16:05.747Z,98148.05
2018-07-13T07:18:33.341Z,98145.84
2018-07-13T07:21:00.983Z,98141.22
2018-07-13T07:23:29.192Z,98150.66
2018-07-13T07:25:57.728Z,98151.20
2018-07-13T07:28:25.503Z,98156.98
2018-07-13T07:30:53.659Z,98148.98
2018-07-13T07:33:21.298Z,98143.34
2018-07-13T07:35:48.875Z,98147.33
2018-07-13T07:38:16.441Z,98150.65
2018-07-13T07:40:44.218Z,98148.36
2018-07-13T07:43:11.934Z,98153.52
2018-07-13T07:45:39.484Z,98143.69
2018-07-13T07:48:07.118Z,98149.09
2018-07-13T07:50:34.919Z,98145.59
2018-07-13T07:53:02.595Z,98144.33
2018-07-13T07:55:30.226Z,98155.03
2018-07-13T07:57:57.807Z,98155.46
2018-07-13T08:00:25.349Z,98148.94
2018-07-13T08:02:53.603Z,98148.39
2018-07-13T08:05:21.192Z,98149.13
2018-07-13T08:07:48.730Z,98153.63
2018-07-13T08:10:16.276Z,98151.61
2018-07-13T08:12:43.847Z,98148.94
2018-07-13T08:15:11.466Z,98143.97
2018-07-13T08:17:39.073Z,98139.08
2018-07-13T08:20:06.750Z,98143.03
2018-07-13T08:22:38.662Z,98134.27
2018-07-13T08:25:08.304Z,98137.61
2018-07-13T08:27:40.779Z,98135.42
2018-07-13T08:30:17.462Z,98132.89
2018-07-13T08:32:45.486Z,98141.97
2018-07-13T08:35:13.022Z,98131.94
2018-07-13T08:37:40.674Z,98131.34
2018-07-13T08:40:08.279Z,98137.38
2018-07-13T08:42:36.035Z,98125.50
2018-07-13T08:45:03.715Z,98123.77
2018-07-13T08:47:31.328Z,98131.02
2018-07-13T08:49:58.890Z,98126.81
2018-07-13T08:52:26.580Z,98132.27
2018-07-13T08:54:54.534Z,98140.38
2018-07-13T08:57:22.263Z,98134.39
2018-07-13T08:59:49.975Z,98135.70
2018-07-13T09:02:17.502Z,98147.68
2018-07-13T09:04:45.163Z,98133.75
2018-07-13T09:07:12.727Z,98139.23
2018-07-13T09:09:40.323Z,98142.77
2018-07-13T09:12:08.007Z,98142.61
2018-07-13T09:14:35.669Z,98140.83
2018-07-13T09:17:03.236Z,98137.75
2018-07-13T09:19:30.792Z,98137.91
2018-07-13T09:21:58.394Z,98131.45
2018-07-13T09:24:25.992Z,98134.94
2018-07-13T09:26:53.577Z,98138.28
2018-07-13T09:29:21.173Z,98131.01
2018-07-13T09:31:48.759Z,98131.39
2018-07-13T09:34:16.318Z,98131.68
2018-07-13T09:36:43.993Z,98134.47
2018-07-13T09:39:11.603Z,98136.38
2018-07-13T09:41:39.208Z,98140.69
2018-07-13T09:44:06.811Z,98136.17
2018-07-13T09:46:34.622Z,98135.39
2018-07-13T09:49:02.143Z,98125.39
2018-07-13T09:51:29.785Z,98126.28
2018-07-13T09:53:57.441Z,98126.63
2018-07-13T09:56:24.968Z,98122.46
2018-07-13T09:58:52.575Z,98134.48
2018-07-13T10:01:21.299Z,98138.17
2018-07-13T10:03:49.012Z,98120.86
2018-07-13T10:06:16.729Z,98119.98
2018-07-13T10:08:44.498Z,98124.33
2018-07-13T10:11:12.138Z,98125.15
2018-07-13T10:13:40.047Z,98117.09
2018-07-13T10:16:07.630Z,98109.97
2018-07-13T10:18:35.295Z,98120.16
2018-07-13T10:21:03.151Z,98126.36
2018-07-13T10:23:31.447Z,98121.69
2018-07-13T10:26:02.223Z,98126.09
2018-07-13T10:28:30.779Z,98121.30
2018-07-13T10:30:58.447Z,98109.45
2018-07-13T10:33:26.239Z,98119.57
2018-07-13T10:35:54.346Z,98121.56
2018-07-13T10:38:22.107Z,98111.89
2018-07-13T10:40:49.717Z,98116.34
2018-07-13T10:43:17.347Z,98116.58
2018-07-13T10:45:45.025Z,98111.19
2018-07-13T10:48:12.655Z,98103.73
2018-07-13T10:50:40.191Z,98109.55
2018-07-13T10:53:07.735Z,98102.97
2018-07-13T10:55:35.356Z,98104.79
2018-07-13T10:58:02.930Z,98105.75
2018-07-13T11:00:30.535Z,98105.52
2018-07-13T11:02:58.230Z,98092.72
2018-07-13T11:05:25.691Z,98094.92
2018-07-13T11:07:53.225Z,98094.55
2018-07-13T11:10:20.815Z,98096.37
2018-07-13T11:12:48.357Z,98095.66
2018-07-13T11:15:16.003Z,98094.20
2018-07-13T11:17:43.632Z,98094.28
2018-07-13T11:20:11.207Z,98100.97
2018-07-13T11:22:38.750Z,98100.80
2018-07-13T11:25:06.332Z,98102.33
2018-07-13T11:27:33.874Z,98099.29
2018-07-13T11:30:01.450Z,98097.27
2018-07-13T11:32:29.059Z,98089.44
2018-07-13T11:34:56.611Z,98086.86
2018-07-13T11:37:24.250Z,98089.77
2018-07-13T11:39:51.814Z,98076.12
2018-07-13T11:42:19.363Z,98077.05
2018-07-13T11:44:46.904Z,98069.88
2018-07-13T11:47:14.499Z,98075.90
2018-07-13T11:49:42.042Z,98079.92
2018-07-13T11:52:09.684Z,98076.34
2018-07-13T11:54:37.211Z,98071.55
2018-07-13T11:57:04.774Z,98068.45
2018-07-13T11:59:32.307Z,98068.08
2018-07-13T12:01:59.912Z,98069.73
2018-07-13T12:04:27.463Z,98065.97
2018-07-13T12:06:54.987Z,98065.61
2018-07-13T12:09:22.572Z,98066.78
2018-07-13T12:11:50.147Z,98067.27
2018-07-13T12:14:17.748Z,98057.52
2018-07-13T12:16:45.465Z,98060.20
2018-07-13T12:19:13.011Z,98061.36
2018-07-13T12:21:40.614Z,98072.44
2018-07-13T12:24:08.219Z,98068.80
2018-07-13T12:26:35.810Z,98062.00
2018-07-13T12:29:03.422Z,98064.92
2018-07-13T12:31:31.035Z,98061.39
2018-07-13T12:33:58.686Z,98064.97
2018-07-13T12:36:26.362Z,98063.58
2018-07-13T12:38:53.935Z,98050.02
2018-07-13T12:41:21.535Z,98043.19
2018-07-13T12:43:49.343Z,98051.92
2018-07-13T12:46:16.922Z,98054.05
2018-07-13T12:48:44.497Z,98052.53
2018-07-13T12:51:12.076Z,98052.46
2018-07-13T12:53:39.687Z,98053.94
2018-07-13T12:56:07.328Z,98050.70
2018-07-13T12:58:34.959Z,98050.93
2018-07-13T13:01:02.602Z,98050.76
2018-07-13T13:03:30.161Z,98040.80
2018-07-13T13:05:58.162Z,98047.75
2018-07-13T13:08:25.742Z,98035.30
2018-07-13T13:10:53.318Z,98042.40
2018-07-13T13:13:20.875Z,98039.13
2018-07-13T13:15:48.454Z,98032.63
2018-07-13T13:18:15.997Z,98032.07
2018-07-13T13:20:43.702Z,98031.89
2018-07-13T13:23:11.278Z,98037.43
2018-07-13T13:25:38.866Z,98033.36
2018-07-13T13:28:06.441Z,98032.12
2018-07-13T13:30:34.084Z,98031.91
2018-07-13T13:33:01.750Z,98036.78
2018-07-13T13:35:29.417Z,98035.86
2018-07-13T13:37:57.005Z,98030.80
2018-07-13T13:40:26.328Z,98024.31
2018-07-13T13:42:53.897Z,98032.11
2018-07-13T13:45:21.485Z,98031.73
2018-07-13T13:47:49.148Z,98020.95
2018-07-13T13:50:16.706Z,98011.18
2018-07-13T13:52:44.383Z,98012.67
2018-07-13T13:55:11.960Z,98014.41
2018-07-13T13:57:39.506Z,98018.45
2018-07-13T14:00:07.135Z,98006.90
2018-07-13T14:02:34.675Z,98012.42
2018-07-13T14:05:02.225Z,98017.21
2018-07-13T14:07:29.821Z,98013.30
2018-07-13T14:09:57.347Z,98015.47
2018-07-13T14:12:24.932Z,98006.58
2018-07-13T14:14:52.564Z,97999.47
2018-07-13T14:17:20.123Z,97994.32
2018-07-13T14:19:47.673Z,98000.78
2018-07-13T14:22:15.262Z,97997.68
2018-07-13T14:24:42.847Z,97996.69
2018-07-13T14:27:10.419Z,98001.80
2018-07-13T14:29:38.042Z,97986.85
2018-07-13T14:32:05.644Z,97987.96
2018-07-13T14:34:33.307Z,97987.94
2018-07-13T14:37:00.963Z,97983.20
2018-07-13T14:39:28.587Z,97984.62
2018-07-13T14:41:56.340Z,97984.42
2018-07-13T14:44:23.967Z,97983.48
2018-07-13T14:46:51.553Z,97973.70
2018-07-13T14:49:19.102Z,97978.59
2018-07-13T14:51:46.749Z,97983.16
2018-07-13T14:54:14.362Z,97977.29
2018-07-13T14:56:41.943Z,97981.55
2018-07-13T14:59:09.558Z,97982.22
2018-07-13T15:01:37.270Z,97976.37
2018-07-13T15:04:05.036Z,97981.08
2018-07-13T15:06:32.751Z,97974.86
2018-07-13T15:09:00.232Z,97973.42
2018-07-13T15:11:27.827Z,97971.95
2018-07-13T15:13:55.431Z,97971.88
2018-07-13T15:16:22.984Z,97975.49
2018-07-13T15:18:50.663Z,97971.19
2018-07-13T15:21:18.254Z,97965.83
2018-07-13T15:23:45.970Z,97968.77
2018-07-13T15:26:13.522Z,97964.95
2018-07-13T15:28:41.106Z,97966.84
2018-07-13T15:31:08.692Z,97960.29
2018-07-13T15:33:36.267Z,97956.38
2018-07-13T15:36:03.926Z,97952.89
2018-07-13T15:38:31.510Z,97957.94
2018-07-13T15:40:59.035Z,97959.41
2018-07-13T15:43:26.674Z,97957.52
2018-07-13T15:45:54.212Z,97964.37
2018-07-13T15:48:21.774Z,97957.89
2018-07-13T15:50:49.350Z,97960.66
2018-07-13T15:53:16.899Z,97958.02
2018-07-13T15:55:50.098Z,97950.48
2018-07-13T15:58:17.655Z,97953.70
2018-07-13T16:00:45.256Z,97958.39
2018-07-13T16:03:12.871Z,97955.39
2018-07-13T16:05:40.540Z,97958.66
2018-07-13T16:08:08.039Z,97959.13
2018-07-13T16:10:35.718Z,97954.53
2018-07-13T16:13:03.278Z,97951.58
2018-07-13T16:15:30.924Z,97949.66
2018-07-13T16:17:58.533Z,97948.73
2018-07-13T16:20:26.097Z,97946.66
2018-07-13T16:22:53.725Z,97947.11
2018-07-13T16:25:21.319Z,97948.45
2018-07-13T16:27:49.004Z,97942.75
2018-07-13T16:30:16.634Z,97939.46
2018-07-13T16:32:44.226Z,97939.53
2018-07-13T16:35:11.765Z,97946.16
2018-07-13T16:37:39.354Z,97941.30
2018-07-13T16:40:06.932Z,97944.06
2018-07-13T16:42:34.479Z,97940.84
2018-07-13T16:45:02.169Z,97946.78
2018-07-13T16:47:29.771Z,97945.11
2018-07-13T16:49:57.366Z,97947.78
2018-07-13T16:52:24.942Z,97945.25
2018-07-13T16:54:52.550Z,97947.19
2018-07-13T16:57:20.162Z,97946.34
2018-07-13T16:59:47.706Z,97946.13
2018-07-13T17:02:15.378Z,97944.94
2018-07-13T17:04:43.020Z,97950.94
2018-07-13T17:07:10.581Z,97953.03
2018-07-13T17:09:38.190Z,97949.72
2018-07-13T17:12:05.857Z,97948.50
2018-07-13T17:14:33.440Z,97951.36
2018-07-13T17:17:01.067Z,97950.76
2018-07-13T17:19:28.651Z,97948.13
2018-07-13T17:21:56.256Z,97953.58
2018-07-13T17:24:23.875Z,97952.30
2018-07-13T17:26:51.494Z,97953.96
2018-07-13T17:29:19.081Z,97948.09
2018-07-13T17:31:46.691Z,97952.54
2018-07-13T17:34:14.295Z,97954.53
2018-07-13T17:36:41.960Z,97950.48
2018-07-13T17:39:09.617Z,97954.65
2018-07-13T17:41:37.216Z,97951.95
2018-07-13T17:44:04.790Z,97954.12
2018-07-13T17:46:32.366Z,97952.55
2018-07-13T17:49:00.237Z,97957.03
2018-07-13T17:51:27.723Z,97950.06
2018-07-13T17:53:55.285Z,97954.67
2018-07-13T17:56:22.835Z,97948.84
2018-07-13T17:58:50.398Z,97952.47
2018-07-13T18:01:18.032Z,97953.25
2018-07-13T18:03:45.582Z,97948.86
2018-07-13T18:06:13.118Z,97955.23
2018-07-13T18:08:40.738Z,97956.77
2018-07-13T18:11:08.314Z,97967.47
2018-07-13T18:13:35.872Z,97962.97
2018-07-13T18:16:03.484Z,97964.76
2018-07-13T18:18:31.074Z,97971.86
2018-07-13T18:20:58.632Z,97969.12
2018-07-13T18:23:26.203Z,97971.31
2018-07-13T18:25:53.806Z,97976.42
2018-07-13T18:28:21.347Z,97977.21
2018-07-13T18:30:48.943Z,97975.59
2018-07-13T18:33:16.481Z,97972.20
2018-07-13T18:35:44.122Z,97972.19
2018-07-13T18:38:11.706Z,97975.98
2018-07-13T18:40:39.231Z,97982.19
2018-07-13T18:43:06.826Z,97983.04
2018-07-13T18:45:34.422Z,97986.41
2018-07-13T18:48:02.086Z,97990.11
2018-07-13T18:50:29.702Z,97991.20
2018-07-13T18:52:57.403Z,97990.45
2018-07-13T18:55:24.963Z,97987.70
2018-07-13T18:57:52.540Z,97988.33
2018-07-13T19:00:20.107Z,97993.38
2018-07-13T19:02:47.643Z,97990.99
2018-07-13T19:05:15.198Z,97997.58
2018-07-13T19:07:42.742Z,98001.03
2018-07-13T19:10:10.263Z,98004.58
2018-07-13T19:12:37.875Z,98014.09
2018-07-13T19:15:05.734Z,98013.29
2018-07-13T19:17:33.265Z,98019.11
2018-07-13T19:20:00.866Z,98018.61
2018-07-13T19:22:28.468Z,98032.05
2018-07-13T19:24:56.088Z,98033.54
2018-07-13T19:27:23.655Z,98032.59
2018-07-13T19:29:51.241Z,98038.94
2018-07-13T19:32:18.786Z,98042.49
2018-07-13T19:34:46.520Z,98041.77
2018-07-13T19:37:14.082Z,98050.29
2018-07-13T19:39:42.434Z,98053.27
2018-07-13T19:42:10.046Z,98053.05
2018-07-13T19:44:37.606Z,98060.90
2018-07-13T19:47:05.502Z,98059.09
2018-07-13T19:49:33.267Z,98057.34
2018-07-13T19:52:01.041Z,98063.89
2018-07-13T19:54:28.727Z,98065.77
2018-07-13T19:56:56.312Z,98073.92
2018-07-13T19:59:23.870Z,98070.14
2018-07-13T20:01:51.465Z,98070.80
2018-07-13T20:04:19.025Z,98079.39
2018-07-13T20:06:46.798Z,98078.31
2018-07-13T20:09:14.378Z,98081.15
2018-07-13T20:11:42.179Z,98073.46
2018-07-13T20:14:09.863Z,98083.47
2018-07-13T20:16:37.460Z,98085.66
2018-07-13T20:19:05.062Z,98082.42
2018-07-13T20:21:32.660Z,98087.30
2018-07-13T20:24:00.239Z,98087.84
2018-07-13T20:26:27.840Z,98092.20
2018-07-13T20:28:58.631Z,98095.37
2018-07-13T20:31:29.663Z,98097.66
2018-07-13T20:33:59.045Z,98102.20
2018-07-13T20:36:26.764Z,98100.17
2018-07-13T20:38:55.092Z,98102.89
2018-07-13T20:41:23.069Z,98102.33
2018-07-13T20:43:51.259Z,98103.63
2018-07-13T20:46:19.377Z,98106.86
2018-07-13T20:48:47.525Z,98110.44
2018-07-13T20:51:15.292Z,98114.58
2018-07-13T20:53:42.933Z,98112.63
2018-07-13T20:56:10.547Z,98110.56
2018-07-13T20:58:38.151Z,98112.81
2018-07-13T21:01:06.000Z,98110.21
2018-07-13T21:03:33.691Z,98107.61
2018-07-13T21:06:01.550Z,98109.23
2018-07-13T21:08:29.375Z,98107.92
2018-07-13T21:10:57.494Z,98110.20
2018-07-13T21:13:25.254Z,98108.89
2018-07-13T21:15:53.060Z,98111.09
2018-07-13T21:18:21.350Z,98117.17
2018-07-13T21:20:48.973Z,98116.18
2018-07-13T21:23:16.649Z,98115.21
2018-07-13T21:25:44.262Z,98118.53
2018-07-13T21:28:11.809Z,98118.86
2018-07-13T21:30:39.983Z,98124.67
2018-07-13T21:33:07.933Z,98124.67
2018-07-13T21:35:35.754Z,98124.20
2018-07-13T21:38:04.562Z,98130.16
2018-07-13T21:40:32.606Z,98128.07
2018-07-13T21:43:00.498Z,98129.77
2018-07-13T21:45:28.660Z,98127.16
2018-07-13T21:47:57.519Z,98123.25
2018-07-13T21:50:25.356Z,98126.14
2018-07-13T21:52:53.206Z,98124.94
2018-07-13T21:55:21.168Z,98128.69
2018-07-13T21:57:48.982Z,98129.77
2018-07-13T22:00:16.789Z,98137.09
2018-07-13T22:02:44.551Z,98135.84
2018-07-13T22:05:12.345Z,98130.66
2018-07-13T22:07:40.250Z,98126.84
2018-07-13T22:10:07.908Z,98124.73
2018-07-13T22:12:35.466Z,98123.29
2018-07-13T22:15:04.596Z,98131.27
2018-07-13T22:17:32.280Z,98136.33
2018-07-13T22:19:59.958Z,98136.33
2018-07-13T22:22:27.572Z,98138.14
2018-07-13T22:24:55.529Z,98141.47
2018-07-13T22:27:23.394Z,98139.97
2018-07-13T22:29:51.282Z,98140.61
2018-07-13T22:32:19.284Z,98145.36
2018-07-13T22:34:47.250Z,98149.88
2018-07-13T22:37:15.042Z,98150.59
2018-07-13T22:39:42.904Z,98156.61
2018-07-13T22:42:11.183Z,98163.95
2018-07-13T22:44:38.982Z,98165.63
2018-07-13T22:47:06.884Z,98175.90
2018-07-13T22:49:34.508Z,98169.39
2018-07-13T22:52:02.481Z,98181.16
2018-07-13T22:54:30.126Z,98178.77
2018-07-13T22:56:58.204Z,98178.52
2018-07-13T22:59:26.182Z,98179.05
2018-07-13T23:01:54.062Z,98177.39
2018-07-13T23:04:21.823Z,98182.80
2018-07-13T23:06:49.588Z,98182.16
2018-07-13T23:09:17.468Z,98184.84
2018-07-13T23:11:45.144Z,98181.27
2018-07-13T23:14:12.844Z,98174.12
2018-07-13T23:16:40.491Z,98175.52
2018-07-13T23:19:08.284Z,98168.86
2018-07-13T23:21:35.965Z,98169.69
2018-07-13T23:24:03.786Z,98171.87
2018-07-13T23:26:31.643Z,98178.41
2018-07-13T23:28:59.382Z,98176.00
2018-07-13T23:31:27.267Z,98178.34
2018-07-13T23:33:55.115Z,98179.53
2018-07-13T23:36:22.646Z,98177.23
2018-07-13T23:38:50.236Z,98176.74
2018-07-13T23:41:17.890Z,98172.44
2018-07-13T23:43:45.669Z,98183.25
2018-07-13T23:46:13.433Z,98179.38
2018-07-13T23:48:41.023Z,98175.22
2018-07-13T23:51:08.583Z,98178.71
2018-07-13T23:53:36.151Z,98181.31
2018-07-13T23:56:03.819Z,98186.94
2018-07-13T23:58:31.394Z,98185.64
